Time;durP1;ratioP1;P1;durP2;ratioP2;P2;SDS_P1;SDS_P2;PMS_P1;PMS_P2;Temp;Humidity;BMP_temperature;BMP_pressure;BME280_temperature;BME280_humidity;BME280_pressure;Samples;Min_cycle;Max_cycle;Signal;HPM_P1;HPM_P2
2023/04/21 00:01:18;;;;;;;22.55;14.90;;;;;;;;;;10286344;28;20035;-86
2023/04/21 00:06:25;;;;;;;25.77;16.02;;;;;;;;;;10305186;28;20073;-85
2023/04/21 00:11:27;;;;;;;24.45;14.98;;;;;;;;;;10320018;28;21220;-85
2023/04/21 00:16:31;;;;;;;22.80;15.57;;;;;;;;;;10358275;28;20026;-86
2023/04/21 00:21:34;;;;;;;26.23;17.30;;;;;;;;;;10335590;28;20106;-88
2023/04/21 00:26:36;;;;;;;25.73;17.15;;;;;;;;;;10332272;28;20091;-87
2023/04/21 00:31:36;;;;;;;26.33;16.65;;;;;;;;;;10543250;23;20039;-84
2023/04/21 00:36:43;;;;;;;27.10;16.90;;;;;;;;;;10330336;28;20102;-85
2023/04/21 00:41:48;;;;;;;26.08;16.95;;;;;;;;;;10310151;28;20077;-87
2023/04/21 00:46:49;;;;;;;26.73;16.45;;;;;;;;;;10319516;28;20062;-88
2023/04/21 00:51:52;;;;;;;29.80;17.40;;;;;;;;;;10292212;28;20086;-87
2023/04/21 00:56:57;;;;;;;27.45;16.42;;;;;;;;;;10306077;28;20053;-87
2023/04/21 01:01:57;;;;;;;27.80;17.08;;;;;;;;;;10331562;28;20030;-87
2023/04/21 01:06:58;;;;;;;28.63;17.55;;;;;;;;;;10334567;28;20050;-85
2023/04/21 01:12:03;;;;;;;27.45;17.10;;;;;;;;;;10330857;28;20026;-87
2023/04/21 01:17:06;;;;;;;27.30;16.38;;;;;;;;;;10341936;28;20134;-87
2023/04/21 01:22:11;;;;;;;24.00;15.85;;;;;;;;;;10330895;28;20134;-83
2023/04/21 01:27:19;;;;;;;26.90;16.83;;;;;;;;;;10323053;28;20050;-87
2023/04/21 01:32:25;;;;;;;24.58;14.98;;;;;;;;;;10346673;28;20030;-86
2023/04/21 01:37:39;;;;;;;28.33;18.55;;;;;;;;;;10354414;28;20030;-86
2023/04/21 01:42:44;;;;;;;28.65;17.52;;;;;;;;;;10341990;28;20052;-85
2023/04/21 01:47:44;;;;;;;25.30;15.38;;;;;;;;;;10339152;28;20454;-83
2023/04/21 01:52:47;;;;;;;27.57;16.90;;;;;;;;;;10356074;28;20474;-83
2023/04/21 01:57:48;;;;;;;27.30;15.90;;;;;;;;;;10347817;28;20042;-83
2023/04/21 02:02:49;;;;;;;27.83;16.67;;;;;;;;;;10340253;28;20054;-85
2023/04/21 02:07:49;;;;;;;27.83;17.13;;;;;;;;;;10323264;28;20133;-84
2023/04/21 02:12:52;;;;;;;26.10;16.73;;;;;;;;;;10271772;28;20119;-84
2023/04/21 02:17:54;;;;;;;31.17;18.27;;;;;;;;;;10305115;28;20061;-84
2023/04/21 02:22:55;;;;;;;26.80;16.83;;;;;;;;;;10314610;28;20281;-82
2023/04/21 02:27:57;;;;;;;25.70;15.77;;;;;;;;;;10358240;28;20070;-83
2023/04/21 02:33:00;;;;;;;27.10;17.90;;;;;;;;;;10320280;28;20061;-87
2023/04/21 02:38:06;;;;;;;25.38;16.20;;;;;;;;;;10304118;28;20710;-85
2023/04/21 02:43:06;;;;;;;28.55;17.77;;;;;;;;;;10300364;28;20719;-86
2023/04/21 02:48:08;;;;;;;32.58;17.05;;;;;;;;;;10271692;28;20169;-86
2023/04/21 02:53:18;;;;;;;29.40;16.55;;;;;;;;;;10287310;28;20394;-86
2023/04/21 02:58:23;;;;;;;27.30;16.85;;;;;;;;;;10322211;28;20057;-85
2023/04/21 03:03:28;;;;;;;30.92;18.45;;;;;;;;;;10332643;28;20057;-84
2023/04/21 03:08:33;;;;;;;26.25;16.30;;;;;;;;;;10294029;28;20137;-84
2023/04/21 03:13:36;;;;;;;30.58;17.50;;;;;;;;;;10303913;28;20045;-84
2023/04/21 03:18:39;;;;;;;32.57;20.07;;;;;;;;;;10349698;28;20041;-84
2023/04/21 03:23:39;;;;;;;39.67;22.85;;;;;;;;;;10312810;28;20047;-85
2023/04/21 03:28:40;;;;;;;37.42;21.83;;;;;;;;;;10333164;28;20106;-87
2023/04/21 03:33:42;;;;;;;31.08;19.00;;;;;;;;;;10351944;28;20521;-89
2023/04/21 03:38:44;;;;;;;34.85;20.75;;;;;;;;;;10310259;28;20042;-88
2023/04/21 03:43:51;;;;;;;30.98;19.73;;;;;;;;;;10333429;28;20066;-88
2023/04/21 03:48:53;;;;;;;37.85;20.88;;;;;;;;;;10320268;28;20089;-87
2023/04/21 03:53:54;;;;;;;31.25;18.15;;;;;;;;;;10337233;28;20053;-88
2023/04/21 03:58:56;;;;;;;29.35;17.92;;;;;;;;;;10418016;23;20062;-87
2023/04/21 04:04:04;;;;;;;34.30;19.55;;;;;;;;;;10295918;28;20078;-91
2023/04/21 04:09:05;;;;;;;29.98;17.23;;;;;;;;;;10250943;28;20068;-88
2023/04/21 04:14:05;;;;;;;31.40;18.70;;;;;;;;;;10268811;28;20067;-87
2023/04/21 04:19:06;;;;;;;28.77;18.57;;;;;;;;;;10264941;28;20043;-86
2023/04/21 04:24:07;;;;;;;32.22;18.48;;;;;;;;;;10265475;28;20291;-87
2023/04/21 04:29:09;;;;;;;30.20;18.33;;;;;;;;;;10234988;28;20102;-80
2023/04/21 04:34:10;;;;;;;33.13;18.35;;;;;;;;;;10231160;28;20115;-79
2023/04/21 04:39:11;;;;;;;27.70;17.17;;;;;;;;;;10228790;28;20055;-79
2023/04/21 04:44:11;;;;;;;32.90;18.67;;;;;;;;;;10225863;28;20198;-81
2023/04/21 04:49:12;;;;;;;32.72;16.85;;;;;;;;;;10234392;28;20130;-78
2023/04/21 04:54:12;;;;;;;31.85;18.23;;;;;;;;;;10228570;28;20043;-78
2023/04/21 04:59:12;;;;;;;32.05;18.90;;;;;;;;;;10231219;28;20058;-79
2023/04/21 05:04:15;;;;;;;32.60;19.33;;;;;;;;;;10229589;28;20538;-79
2023/04/21 05:09:15;;;;;;;31.15;18.50;;;;;;;;;;10230938;28;20047;-80
2023/04/21 05:14:19;;;;;;;26.53;17.03;;;;;;;;;;10228405;28;20078;-81
2023/04/21 05:19:19;;;;;;;31.08;17.98;;;;;;;;;;10204679;28;20693;-79
2023/04/21 05:24:23;;;;;;;35.70;18.98;;;;;;;;;;10228934;28;20142;-79
2023/04/21 05:29:23;;;;;;;29.42;17.42;;;;;;;;;;10234078;28;20047;-77
2023/04/21 05:34:23;;;;;;;36.42;20.83;;;;;;;;;;10229655;28;20052;-78
2023/04/21 05:39:25;;;;;;;33.27;20.17;;;;;;;;;;10252823;28;20047;-79
2023/04/21 05:44:27;;;;;;;;;;;;;;;;;;10280896;28;20351;-78
2023/04/21 05:49:27;;;;;;;35.83;20.15;;;;;;;;;;10284256;28;19924;-79
2023/04/21 05:54:28;;;;;;;32.80;19.45;;;;;;;;;;10284920;28;20043;-78
2023/04/21 05:59:29;;;;;;;35.58;19.95;;;;;;;;;;10295061;28;20062;-81
2023/04/21 06:04:29;;;;;;;30.38;19.38;;;;;;;;;;10292647;28;20075;-76
2023/04/21 06:09:30;;;;;;;28.13;17.53;;;;;;;;;;10247207;28;20037;-77
2023/04/21 06:14:30;;;;;;;35.17;20.23;;;;;;;;;;10297031;28;20291;-79
2023/04/21 06:19:35;;;;;;;28.25;17.08;;;;;;;;;;10264672;28;20051;-80
2023/04/21 06:24:35;;;;;;;23.67;15.00;;;;;;;;;;10226789;28;20143;-82
2023/04/21 06:29:36;;;;;;;20.87;13.47;;;;;;;;;;10225193;28;20539;-82
2023/04/21 06:34:36;;;;;;;19.95;12.80;;;;;;;;;;10222857;28;20836;-81
2023/04/21 06:39:37;;;;;;;19.77;15.45;;;;;;;;;;10222185;28;20039;-79
2023/04/21 06:44:39;;;;;;;21.52;13.20;;;;;;;;;;10227879;28;20087;-81
2023/04/21 06:49:39;;;;;;;20.15;13.75;;;;;;;;;;10231214;28;20103;-80
2023/04/21 06:54:40;;;;;;;16.05;11.50;;;;;;;;;;10255070;28;20084;-79
2023/04/21 06:59:40;;;;;;;17.30;12.45;;;;;;;;;;10220055;28;20059;-72
2023/04/21 07:04:41;;;;;;;17.15;13.48;;;;;;;;;;10215734;28;20062;-71
2023/04/21 07:09:46;;;;;;;16.50;11.60;;;;;;;;;;10219428;28;20055;-70
2023/04/21 07:14:46;;;;;;;15.02;10.80;;;;;;;;;;10227035;28;20463;-74
2023/04/21 07:19:48;;;;;;;16.50;11.53;;;;;;;;;;10227686;28;20050;-72
2023/04/21 07:24:49;;;;;;;14.27;10.40;;;;;;;;;;10206262;28;20653;-74
2023/04/21 07:29:50;;;;;;;13.32;10.13;;;;;;;;;;10219884;28;20153;-74
2023/04/21 07:34:50;;;;;;;15.75;11.27;;;;;;;;;;10204659;28;20058;-73
2023/04/21 07:39:52;;;;;;;15.10;10.98;;;;;;;;;;10221425;28;20134;-73
2023/04/21 07:44:54;;;;;;;16.77;10.70;;;;;;;;;;10211078;28;20543;-81
2023/04/21 07:49:55;;;;;;;14.63;11.25;;;;;;;;;;10235346;28;20051;-75
2023/04/21 07:54:58;;;;;;;17.00;10.30;;;;;;;;;;10197848;28;20102;-74
2023/04/21 07:59:59;;;;;;;14.07;10.65;;;;;;;;;;10198659;28;20914;-77
2023/04/21 08:04:59;;;;;;;14.45;10.23;;;;;;;;;;10220107;28;20126;-75
2023/04/21 08:10:01;;;;;;;15.32;9.95;;;;;;;;;;10223450;28;20047;-76
2023/04/21 08:15:07;;;;;;;14.45;9.98;;;;;;;;;;10211120;28;20055;-75
2023/04/21 08:20:07;;;;;;;15.35;9.82;;;;;;;;;;10216876;28;20050;-75
2023/04/21 08:25:08;;;;;;;12.60;9.70;;;;;;;;;;10216188;28;20059;-77
2023/04/21 08:30:08;;;;;;;13.80;9.63;;;;;;;;;;10214762;28;20059;-76
2023/04/21 08:35:09;;;;;;;12.77;9.75;;;;;;;;;;10234729;28;20065;-83
2023/04/21 08:40:10;;;;;;;13.27;9.15;;;;;;;;;;10237540;28;20126;-83
2023/04/21 08:45:10;;;;;;;11.02;8.98;;;;;;;;;;10221600;28;20067;-84
2023/04/21 08:50:13;;;;;;;11.45;8.40;;;;;;;;;;10239594;28;20047;-84
2023/04/21 08:55:14;;;;;;;11.15;8.88;;;;;;;;;;10243000;28;20556;-82
2023/04/21 09:00:14;;;;;;;10.48;8.38;;;;;;;;;;10250456;28;20055;-84
2023/04/21 09:05:20;;;;;;;11.93;8.50;;;;;;;;;;10254881;28;20052;-83
2023/04/21 09:10:23;;;;;;;10.73;8.27;;;;;;;;;;10258027;28;20054;-82
2023/04/21 09:15:24;;;;;;;9.27;7.25;;;;;;;;;;10274871;28;20059;-81
2023/04/21 09:20:25;;;;;;;26.07;18.83;;;;;;;;;;10272782;28;20485;-82
2023/04/21 09:25:25;;;;;;;10.18;7.82;;;;;;;;;;10273308;28;20306;-79
2023/04/21 09:30:25;;;;;;;7.50;6.27;;;;;;;;;;10269863;28;20043;-79
2023/04/21 09:35:31;;;;;;;7.90;6.05;;;;;;;;;;10267102;28;20051;-79
2023/04/21 09:40:33;;;;;;;7.72;6.50;;;;;;;;;;10279347;28;20047;-80
2023/04/21 09:45:35;;;;;;;7.20;6.15;;;;;;;;;;10287467;28;20047;-80
2023/04/21 09:55:55;;;;;;;8.98;7.43;;;;;;;;;;10276888;28;20355;-81
2023/04/21 10:00:56;;;;;;;14.60;11.75;;;;;;;;;;10370893;23;20039;-82
2023/04/21 10:05:58;;;;;;;12.65;7.72;;;;;;;;;;10737863;23;20046;-80
2023/04/21 10:10:59;;;;;;;9.70;6.82;;;;;;;;;;10352712;28;20030;-83
2023/04/21 10:16:01;;;;;;;7.53;6.38;;;;;;;;;;10491311;23;20077;-80
2023/04/21 10:21:03;;;;;;;6.80;6.10;;;;;;;;;;10320992;28;20031;-79
2023/04/21 10:26:07;;;;;;;7.80;6.60;;;;;;;;;;10312665;28;20074;-79
2023/04/21 10:31:41;;;;;;;7.43;5.45;;;;;;;;;;10279735;28;20082;-81
2023/04/21 10:36:50;;;;;;;6.57;5.82;;;;;;;;;;10225015;28;20141;-80
2023/04/21 10:41:53;;;;;;;6.20;5.25;;;;;;;;;;10263195;28;20053;-82
2023/04/21 10:46:57;;;;;;;5.95;4.97;;;;;;;;;;10265699;28;20070;-82
2023/04/21 10:52:07;;;;;;;6.32;4.78;;;;;;;;;;10287498;28;20045;-82
2023/04/21 10:57:08;;;;;;;5.97;4.85;;;;;;;;;;10270497;28;21081;-86
2023/04/21 11:02:13;;;;;;;4.82;4.28;;;;;;;;;;10262442;28;20515;-84
2023/04/21 11:07:15;;;;;;;4.78;4.10;;;;;;;;;;10269637;28;20059;-81
2023/04/21 11:12:18;;;;;;;6.35;4.38;;;;;;;;;;10256274;28;20046;-80
2023/04/21 11:17:19;;;;;;;5.80;4.90;;;;;;;;;;10276108;28;20570;-81
2023/04/21 11:22:21;;;;;;;5.25;4.38;;;;;;;;;;10270436;28;20110;-80
2023/04/21 11:27:22;;;;;;;5.33;4.77;;;;;;;;;;10275712;28;20082;-81
2023/04/21 11:32:23;;;;;;;5.18;4.50;;;;;;;;;;10272953;28;20535;-79
2023/04/21 11:37:28;;;;;;;4.85;4.28;;;;;;;;;;10255194;28;20051;-79
2023/04/21 11:42:30;;;;;;;4.95;4.45;;;;;;;;;;10254710;28;20053;-80
2023/04/21 11:47:31;;;;;;;;;;;;;;;;;;10234458;28;20661;-79
2023/04/21 11:52:32;;;;;;;5.47;4.47;;;;;;;;;;10269889;28;19985;-80
2023/04/21 11:57:32;;;;;;;6.45;4.95;;;;;;;;;;10253481;28;20868;-82
2023/04/21 12:02:33;;;;;;;8.70;5.40;;;;;;;;;;10269599;28;20043;-81
2023/04/21 12:07:38;;;;;;;5.18;4.70;;;;;;;;;;10257060;28;20062;-76
2023/04/21 12:12:39;;;;;;;6.60;4.75;;;;;;;;;;10269689;28;20061;-79
2023/04/21 12:17:44;;;;;;;5.00;4.03;;;;;;;;;;10271979;28;20054;-81
2023/04/21 12:22:44;;;;;;;5.28;4.10;;;;;;;;;;10282343;28;20054;-80
2023/04/21 12:27:51;;;;;;;5.90;4.28;;;;;;;;;;10278496;28;20062;-78
2023/04/21 12:32:54;;;;;;;5.35;4.45;;;;;;;;;;10311664;28;20043;-80
2023/04/21 12:37:55;;;;;;;4.03;3.70;;;;;;;;;;10303404;28;20555;-81
2023/04/21 12:42:55;;;;;;;4.97;4.33;;;;;;;;;;10267796;28;20043;-81
2023/04/21 12:47:57;;;;;;;3.70;3.30;;;;;;;;;;10274251;28;20439;-83
2023/04/21 12:52:57;;;;;;;5.40;3.70;;;;;;;;;;10262741;28;20385;-82
2023/04/21 12:57:58;;;;;;;4.32;3.67;;;;;;;;;;10271339;28;20134;-80
2023/04/21 13:02:58;;;;;;;4.85;3.58;;;;;;;;;;10290206;28;20051;-83
2023/04/21 13:07:59;;;;;;;3.87;3.57;;;;;;;;;;10285079;28;20084;-81
2023/04/21 13:12:59;;;;;;;4.03;3.63;;;;;;;;;;10300861;28;20291;-78
2023/04/21 13:18:00;;;;;;;3.65;3.10;;;;;;;;;;10308507;28;20337;-81
2023/04/21 13:23:00;;;;;;;4.55;3.10;;;;;;;;;;10303944;28;20138;-80
2023/04/21 13:28:00;;;;;;;3.65;3.20;;;;;;;;;;10292843;28;20055;-80
2023/04/21 13:33:02;;;;;;;3.30;3.00;;;;;;;;;;10315867;28;20062;-82
2023/04/21 13:38:02;;;;;;;2.83;2.63;;;;;;;;;;10296709;28;20096;-80
2023/04/21 13:43:03;;;;;;;4.13;3.15;;;;;;;;;;10280651;28;20042;-78
2023/04/21 13:48:03;;;;;;;3.55;2.90;;;;;;;;;;10309825;28;20039;-80
2023/04/21 13:53:04;;;;;;;3.28;2.97;;;;;;;;;;10257081;28;20755;-82
2023/04/21 13:58:05;;;;;;;3.50;3.20;;;;;;;;;;10266870;28;20051;-81
2023/04/21 14:03:06;;;;;;;3.60;3.20;;;;;;;;;;10244921;28;20042;-82
2023/04/21 14:08:06;;;;;;;3.70;3.33;;;;;;;;;;10291299;28;20054;-84
2023/04/21 14:13:06;;;;;;;3.90;3.30;;;;;;;;;;10280527;28;20534;-84
2023/04/21 14:18:08;;;;;;;4.72;3.47;;;;;;;;;;10289357;28;20286;-83
2023/04/21 14:23:08;;;;;;;4.00;3.60;;;;;;;;;;10284382;28;20051;-79
2023/04/21 14:28:10;;;;;;;4.28;3.72;;;;;;;;;;10318054;28;20058;-78
2023/04/21 14:33:10;;;;;;;3.10;2.80;;;;;;;;;;10316940;28;20103;-79
2023/04/21 14:38:11;;;;;;;4.00;3.60;;;;;;;;;;10310997;28;20055;-83
2023/04/21 14:43:11;;;;;;;3.33;2.77;;;;;;;;;;10271765;28;20054;-82
2023/04/21 14:48:13;;;;;;;3.47;3.17;;;;;;;;;;10278246;28;20321;-79
2023/04/21 14:53:13;;;;;;;3.07;2.80;;;;;;;;;;10283313;28;20059;-82
2023/04/21 14:58:13;;;;;;;3.43;3.13;;;;;;;;;;10259741;28;20747;-78
2023/04/21 15:03:14;;;;;;;4.80;3.47;;;;;;;;;;10275065;28;20310;-80
2023/04/21 15:08:17;;;;;;;3.72;3.10;;;;;;;;;;10247083;28;20069;-79
2023/04/21 15:13:17;;;;;;;3.13;2.92;;;;;;;;;;10269214;28;20062;-81
2023/04/21 15:18:17;;;;;;;4.55;3.08;;;;;;;;;;10262743;28;20061;-77
2023/04/21 15:23:18;;;;;;;3.60;2.87;;;;;;;;;;10276546;28;20466;-77
2023/04/21 15:28:19;;;;;;;4.80;3.95;;;;;;;;;;10259964;28;20322;-77
2023/04/21 15:33:22;;;;;;;3.95;3.00;;;;;;;;;;10293468;28;20047;-82
2023/04/21 15:38:24;;;;;;;3.45;3.15;;;;;;;;;;10280703;28;20055;-79
2023/04/21 15:43:25;;;;;;;3.28;2.97;;;;;;;;;;10265263;28;20047;-80
2023/04/21 15:48:25;;;;;;;3.95;3.30;;;;;;;;;;10276296;28;20557;-79
2023/04/21 15:53:26;;;;;;;3.33;2.95;;;;;;;;;;10275110;28;20053;-81
2023/04/21 15:58:26;;;;;;;3.60;3.03;;;;;;;;;;10273699;28;20046;-82
2023/04/21 16:03:27;;;;;;;3.70;3.00;;;;;;;;;;10256355;28;20074;-80
2023/04/21 16:08:33;;;;;;;3.10;2.80;;;;;;;;;;10264713;28;20063;-81
2023/04/21 16:13:51;;;;;;;4.00;2.92;;;;;;;;;;10261024;28;20062;-83
2023/04/21 16:18:53;;;;;;;3.72;3.38;;;;;;;;;;10250717;28;20054;-85
2023/04/21 16:23:57;;;;;;;3.80;3.13;;;;;;;;;;10264343;28;20057;-86
2023/04/21 16:29:00;;;;;;;4.53;4.13;;;;;;;;;;10293904;28;20043;-85
2023/04/21 16:34:02;;;;;;;4.10;3.70;;;;;;;;;;10288657;28;20062;-82
2023/04/21 16:39:05;;;;;;;5.05;3.42;;;;;;;;;;10253997;28;20066;-81
2023/04/21 16:44:05;;;;;;;3.33;3.03;;;;;;;;;;10284283;28;20126;-81
2023/04/21 16:49:06;;;;;;;4.10;3.70;;;;;;;;;;10296511;28;20087;-79
2023/04/21 16:54:10;;;;;;;4.15;3.35;;;;;;;;;;10312171;28;20354;-79
2023/04/21 16:59:11;;;;;;;4.63;4.22;;;;;;;;;;10317120;28;20038;-81
2023/04/21 17:04:14;;;;;;;4.97;4.33;;;;;;;;;;10300431;28;20093;-81
2023/04/21 17:09:14;;;;;;;4.00;3.60;;;;;;;;;;10307272;28;20310;-83
2023/04/21 17:14:15;;;;;;;5.97;3.88;;;;;;;;;;10313923;28;20053;-79
2023/04/21 17:19:15;;;;;;;4.60;3.63;;;;;;;;;;10304117;28;20069;-80
2023/04/21 17:24:16;;;;;;;4.50;3.80;;;;;;;;;;10310036;28;20270;-79
2023/04/21 17:29:16;;;;;;;3.80;3.37;;;;;;;;;;10312482;28;20027;-77
2023/04/21 17:34:17;;;;;;;3.85;3.45;;;;;;;;;;10327060;28;20282;-80
2023/04/21 17:39:17;;;;;;;4.13;3.73;;;;;;;;;;10273503;28;20059;-79
2023/04/21 17:44:17;;;;;;;4.60;3.40;;;;;;;;;;10259966;28;20077;-79
2023/04/21 17:49:18;;;;;;;5.67;4.40;;;;;;;;;;10282584;28;20715;-78
2023/04/21 17:54:19;;;;;;;4.13;3.63;;;;;;;;;;10271653;28;20050;-82
2023/04/21 17:59:20;;;;;;;4.95;4.43;;;;;;;;;;10281432;28;20290;-79
2023/04/21 18:04:23;;;;;;;7.75;5.03;;;;;;;;;;10267646;28;20043;-79
2023/04/21 18:09:24;;;;;;;5.18;3.70;;;;;;;;;;10278257;28;20565;-79
2023/04/21 18:14:26;;;;;;;5.13;3.55;;;;;;;;;;10279340;28;20339;-78
2023/04/21 18:19:26;;;;;;;4.30;3.78;;;;;;;;;;10273450;28;20082;-79
2023/04/21 18:24:27;;;;;;;6.40;4.57;;;;;;;;;;10270218;28;20098;-79
2023/04/21 18:29:27;;;;;;;7.47;6.07;;;;;;;;;;10257467;28;20057;-79
2023/04/21 18:34:28;;;;;;;5.45;4.28;;;;;;;;;;10274830;28;20078;-81
2023/04/21 18:39:28;;;;;;;4.68;3.90;;;;;;;;;;10272106;28;20128;-79
2023/04/21 18:44:29;;;;;;;4.80;4.30;;;;;;;;;;10257603;28;20126;-81
2023/04/21 18:49:33;;;;;;;5.85;5.25;;;;;;;;;;10273190;28;20094;-80
2023/04/21 18:54:35;;;;;;;5.25;4.78;;;;;;;;;;10279818;28;20054;-78
2023/04/21 18:59:36;;;;;;;4.47;4.07;;;;;;;;;;10273378;28;20055;-81
2023/04/21 19:04:37;;;;;;;4.17;3.77;;;;;;;;;;10254169;28;21243;-79
2023/04/21 19:09:37;;;;;;;4.63;4.18;;;;;;;;;;10238271;28;20310;-80
2023/04/21 19:14:37;;;;;;;4.80;4.30;;;;;;;;;;10260662;28;20058;-81
2023/04/21 19:19:38;;;;;;;4.40;4.00;;;;;;;;;;10276003;28;20854;-79
2023/04/21 19:24:39;;;;;;;5.77;4.33;;;;;;;;;;10273972;28;20158;-82
2023/04/21 19:29:39;;;;;;;7.90;5.65;;;;;;;;;;10255500;28;20636;-81
2023/04/21 19:34:40;;;;;;;6.15;5.25;;;;;;;;;;10276305;28;20061;-83
2023/04/21 19:39:40;;;;;;;5.22;4.72;;;;;;;;;;10276077;28;20666;-82
2023/04/21 19:44:41;;;;;;;5.32;4.45;;;;;;;;;;10307710;28;20050;-82
2023/04/21 19:49:42;;;;;;;5.30;4.37;;;;;;;;;;10336772;28;20038;-80
2023/04/21 19:54:43;;;;;;;5.70;4.43;;;;;;;;;;10324687;28;20305;-79
2023/04/21 19:59:44;;;;;;;6.00;4.47;;;;;;;;;;10329746;28;20137;-84
2023/04/21 20:04:49;;;;;;;6.95;5.43;;;;;;;;;;10350817;28;20051;-83
2023/04/21 20:09:50;;;;;;;6.17;4.70;;;;;;;;;;10358768;28;20070;-82
2023/04/21 20:14:52;;;;;;;4.40;4.00;;;;;;;;;;10361108;28;20743;-84
2023/04/21 20:19:53;;;;;;;5.05;4.53;;;;;;;;;;10351129;28;20037;-84
2023/04/21 20:24:56;;;;;;;4.97;4.35;;;;;;;;;;10366048;28;20037;-81
2023/04/21 20:29:57;;;;;;;4.93;4.13;;;;;;;;;;10380215;28;20102;-80
2023/04/21 20:34:58;;;;;;;4.95;4.45;;;;;;;;;;10373212;28;20045;-83
2023/04/21 20:40:07;;;;;;;5.18;4.68;;;;;;;;;;10361677;28;20056;-87
2023/04/21 20:45:08;;;;;;;5.57;4.57;;;;;;;;;;10390326;28;20038;-82
2023/04/21 20:55:38;;;;;;;6.07;4.45;;;;;;;;;;10763437;23;20039;-86
2023/04/21 21:00:41;;;;;;;5.60;4.60;;;;;;;;;;10702795;23;20044;-84
2023/04/21 21:11:15;;;;;;;5.40;4.25;;;;;;;;;;10225877;29;20233;-82
2023/04/21 21:16:17;;;;;;;5.97;4.50;;;;;;;;;;10230292;28;20044;-83
2023/04/21 21:21:18;;;;;;;7.25;4.90;;;;;;;;;;10229857;28;20282;-82
2023/04/21 21:26:18;;;;;;;5.15;4.65;;;;;;;;;;10486004;23;20070;-83
2023/04/21 21:31:20;;;;;;;5.65;4.70;;;;;;;;;;10225266;29;20070;-83
2023/04/21 21:36:20;;;;;;;4.75;4.30;;;;;;;;;;10203054;29;20050;-83
2023/04/21 21:41:22;;;;;;;5.07;4.32;;;;;;;;;;10215358;29;20066;-85
2023/04/21 21:46:22;;;;;;;5.05;4.35;;;;;;;;;;10223406;29;20043;-84
2023/04/21 21:51:23;;;;;;;4.95;4.15;;;;;;;;;;10201749;29;20048;-85
2023/04/21 21:56:26;;;;;;;5.88;4.85;;;;;;;;;;10630920;23;20055;-83
2023/04/21 22:01:26;;;;;;;6.60;4.88;;;;;;;;;;11113880;23;20050;-85
2023/04/21 22:06:27;;;;;;;5.70;5.10;;;;;;;;;;10343390;28;20526;-82
2023/04/21 22:11:29;;;;;;;7.20;5.45;;;;;;;;;;10402523;28;20046;-82
2023/04/21 22:16:33;;;;;;;6.72;5.70;;;;;;;;;;10408879;28;20041;-81
2023/04/21 22:21:36;;;;;;;6.00;5.40;;;;;;;;;;10385384;28;20049;-82
2023/04/21 22:26:36;;;;;;;5.95;5.32;;;;;;;;;;10388905;28;20137;-84
2023/04/21 22:31:37;;;;;;;7.72;5.93;;;;;;;;;;10332462;28;21093;-86
2023/04/21 22:36:39;;;;;;;9.40;6.22;;;;;;;;;;10338203;28;20400;-82
2023/04/21 22:41:40;;;;;;;9.02;7.20;;;;;;;;;;10358176;28;20136;-81
2023/04/21 22:46:40;;;;;;;8.27;7.35;;;;;;;;;;10330427;28;20050;-84
2023/04/21 22:51:43;;;;;;;8.05;6.78;;;;;;;;;;10338882;28;20732;-81
2023/04/21 22:56:44;;;;;;;8.65;6.20;;;;;;;;;;10326774;28;20113;-81
2023/04/21 23:01:45;;;;;;;9.02;6.60;;;;;;;;;;10326684;28;20713;-81
2023/04/21 23:06:45;;;;;;;6.87;6.17;;;;;;;;;;10345163;28;20046;-82
2023/04/21 23:11:46;;;;;;;8.15;6.38;;;;;;;;;;10348423;28;20046;-79
2023/04/21 23:16:46;;;;;;;8.70;6.87;;;;;;;;;;10395540;28;20038;-81
2023/04/21 23:21:46;;;;;;;8.70;6.93;;;;;;;;;;10367841;28;20109;-82
2023/04/21 23:26:48;;;;;;;7.63;6.82;;;;;;;;;;10341230;28;20335;-81
2023/04/21 23:31:49;;;;;;;9.88;6.70;;;;;;;;;;10339309;28;20046;-81
2023/04/21 23:36:50;;;;;;;8.77;6.70;;;;;;;;;;10330667;28;20046;-84
2023/04/21 23:41:52;;;;;;;9.10;6.73;;;;;;;;;;10380915;28;20589;-82
2023/04/21 23:46:53;;;;;;;7.05;6.18;;;;;;;;;;10369995;28;20299;-79
2023/04/21 23:51:54;;;;;;;11.93;7.97;;;;;;;;;;10352640;28;20065;-80
2023/04/21 23:56:56;;;;;;;9.27;6.80;;;;;;;;;;10342415;28;20034;-80
